Time;durP1;ratioP1;P1;durP2;ratioP2;P2;SDS_P1;SDS_P2;PMS_P1;PMS_P2;Temp;Humidity;BMP_temperature;BMP_pressure;BME280_temperature;BME280_humidity;BME280_pressure;Samples;Min_cycle;Max_cycle;Signal;HPM_P1;HPM_P2
2022/05/24 00:01:46;;;;;;;23.75;11.45;;;;;;;8.31;76.28;99059.61;1692642;84;21062;-66
2022/05/24 00:04:16;;;;;;;22.02;12.10;;;;;;;8.34;76.56;99063.67;1692652;84;20964;-67
2022/05/24 00:06:42;;;;;;;24.45;12.73;;;;;;;8.31;76.14;99056.87;1692275;84;21157;-67
2022/05/24 00:09:09;;;;;;;20.00;11.40;;;;;;;8.25;76.10;99058.14;1692410;84;21049;-65
2022/05/24 00:11:35;;;;;;;22.45;10.98;;;;;;;8.12;75.89;99065.35;1692708;84;21053;-62
2022/05/24 00:14:02;;;;;;;18.40;10.80;;;;;;;8.02;76.37;99067.78;1692755;83;20968;-67
2022/05/24 00:16:29;;;;;;;20.60;10.18;;;;;;;7.96;76.25;99067.67;1692700;84;20990;-63
2022/05/24 00:18:56;;;;;;;20.02;12.00;;;;;;;7.89;76.78;99066.73;1692499;84;21159;-66
2022/05/24 00:21:22;;;;;;;16.93;11.05;;;;;;;7.86;76.86;99066.82;1692679;84;20938;-64
2022/05/24 00:23:49;;;;;;;32.40;12.10;;;;;;;7.90;77.33;99071.09;1692692;84;21130;-63
2022/05/24 00:26:29;;;;;;;20.35;12.73;;;;;;;7.98;77.40;99076.41;1692222;84;21087;-64
2022/05/24 00:28:56;;;;;;;19.50;11.97;;;;;;;8.06;77.14;99070.70;1664833;86;21106;-67
2022/05/24 00:31:22;;;;;;;24.98;12.25;;;;;;;8.04;76.94;99075.95;1676970;85;21184;-65
2022/05/24 00:33:49;;;;;;;22.30;11.10;;;;;;;8.04;76.84;99075.95;1677045;85;21093;-67
2022/05/24 00:36:18;;;;;;;22.15;12.60;;;;;;;8.00;76.40;99068.09;1698238;84;21479;-67
2022/05/24 00:38:48;;;;;;;21.25;11.55;;;;;;;7.98;76.68;99070.36;1705416;84;21035;-63
2022/05/24 00:41:28;;;;;;;19.30;11.00;;;;;;;8.02;76.33;99073.27;1705004;84;20955;-65
2022/05/24 00:44:12;;;;;;;18.27;11.45;;;;;;;7.96;76.45;99075.90;1705181;84;21511;-67
2022/05/24 00:46:54;;;;;;;19.40;11.65;;;;;;;7.91;76.66;99074.10;1705590;84;21078;-67
2022/05/24 00:49:33;;;;;;;24.92;11.85;;;;;;;7.85;76.65;99070.67;1705276;84;20935;-65
2022/05/24 00:52:14;;;;;;;20.95;12.55;;;;;;;7.84;76.46;99082.77;1679128;84;21085;-64
2022/05/24 00:54:42;;;;;;;20.35;12.65;;;;;;;7.82;76.21;99082.82;1716299;82;20928;-66
2022/05/24 00:57:37;;;;;;;18.73;11.73;;;;;;;7.78;76.51;99075.22;1720422;81;21153;-66
2022/05/24 01:00:14;;;;;;;20.00;11.50;;;;;;;7.82;76.30;99087.75;1688093;82;21042;-66
2022/05/24 01:02:43;;;;;;;16.35;10.60;;;;;;;7.59;76.12;99086.95;1705675;84;20967;-66
2022/05/24 01:05:18;;;;;;;21.17;11.78;;;;;;;7.50;76.48;99084.13;1710937;84;20950;-65
2022/05/24 01:07:48;;;;;;;18.30;11.93;;;;;;;7.47;76.82;99088.86;1710818;84;21559;-60
2022/05/24 01:10:20;;;;;;;20.40;11.35;;;;;;;7.53;76.95;99089.80;1697642;84;21110;-66
2022/05/24 01:12:57;;;;;;;22.42;10.50;;;;;;;7.54;77.01;99087.30;1710638;84;21034;-67
2022/05/24 01:15:24;;;;;;;22.67;12.78;;;;;;;7.55;76.75;99088.94;1709466;84;20904;-65
2022/05/24 01:17:54;;;;;;;18.75;12.03;;;;;;;7.45;77.04;99091.09;1710809;84;21074;-66
2022/05/24 01:20:20;;;;;;;21.05;12.10;;;;;;;7.42;77.12;99086.48;1707984;84;21696;-66
2022/05/24 01:23:18;;;;;;;21.87;11.60;;;;;;;7.40;77.12;99085.97;1682262;85;21157;-66
2022/05/24 01:25:59;;;;;;;19.20;11.60;;;;;;;7.41;77.21;99090.35;1682256;85;21051;-65
2022/05/24 01:28:53;;;;;;;14.60;10.05;;;;;;;7.42;77.49;99084.31;1692012;83;21594;-67
2022/05/24 01:31:21;;;;;;;20.02;11.90;;;;;;;7.43;77.29;99085.93;1709952;84;21019;-66
2022/05/24 01:36:39;;;;;;;17.82;11.35;;;;;;;7.18;77.79;99084.02;1710748;84;21213;-65
2022/05/24 01:39:10;;;;;;;17.77;12.37;;;;;;;7.18;77.71;99082.08;1710746;84;21054;-66
2022/05/24 01:41:41;;;;;;;25.88;13.32;;;;;;;7.17;77.54;99079.09;1710308;84;21007;-67
2022/05/24 01:44:08;;;;;;;23.70;13.00;;;;;;;7.16;77.95;99079.41;1711010;83;21535;-67
2022/05/24 01:46:42;;;;;;;16.57;10.55;;;;;;;7.21;78.04;99083.41;1684333;84;21046;-66
2022/05/24 01:49:26;;;;;;;22.20;11.80;;;;;;;7.21;77.58;99082.58;1711316;83;21116;-63
2022/05/24 01:52:00;;;;;;;21.10;12.30;;;;;;;7.19;77.72;99084.27;1710511;84;20999;-67
2022/05/24 01:54:28;;;;;;;24.02;11.97;;;;;;;7.23;77.65;99081.72;1710917;82;21531;-64
2022/05/24 01:57:05;;;;;;;18.82;11.38;;;;;;;7.20;77.49;99085.87;1719843;82;20983;-68
2022/05/24 01:59:32;;;;;;;22.98;12.00;;;;;;;7.18;77.83;99085.39;1704973;83;21481;-66
2022/05/24 02:02:00;;;;;;;20.05;12.35;;;;;;;7.17;78.04;99098.27;1712484;83;20958;-67
2022/05/24 02:04:29;;;;;;;16.77;11.05;;;;;;;7.14;77.60;99104.92;1716924;83;21542;-67
2022/05/24 02:07:07;;;;;;;19.42;12.13;;;;;;;7.11;77.66;99106.37;1694635;82;21072;-66
2022/05/24 02:09:37;;;;;;;17.85;12.00;;;;;;;7.13;77.73;99106.05;1705914;82;20997;-67
2022/05/24 02:12:10;;;;;;;19.62;12.05;;;;;;;7.11;77.37;99100.88;1705354;83;21540;-66
2022/05/24 02:14:41;;;;;;;25.20;12.70;;;;;;;7.11;77.34;99109.10;1705292;83;21740;-66
2022/05/24 02:17:13;;;;;;;17.37;12.10;;;;;;;7.11;77.01;99119.24;1704666;84;21039;-68
2022/05/24 02:19:45;;;;;;;18.40;12.53;;;;;;;7.06;77.29;99110.58;1677775;84;21440;-68
2022/05/24 02:22:18;;;;;;;22.75;13.28;;;;;;;7.04;77.26;99109.52;1713034;83;20970;-66
2022/05/24 02:24:45;;;;;;;26.73;13.90;;;;;;;7.01;77.12;99103.84;1694608;84;21421;-67
2022/05/24 02:27:11;;;;;;;22.05;13.62;;;;;;;6.99;77.41;99111.00;1706441;83;21564;-66
2022/05/24 02:29:38;;;;;;;22.17;13.83;;;;;;;6.90;77.13;99110.08;1704222;83;21465;-67
2022/05/24 02:32:06;;;;;;;20.65;13.22;;;;;;;6.87;78.04;99110.69;1704598;83;20952;-64
2022/05/24 02:34:34;;;;;;;20.95;13.08;;;;;;;6.92;77.89;99113.33;1704192;82;20968;-65
2022/05/24 02:37:01;;;;;;;23.32;12.55;;;;;;;6.94;78.17;99111.09;1704258;84;20956;-66
2022/05/24 02:39:29;;;;;;;21.77;13.18;;;;;;;6.92;77.89;99107.30;1709953;83;21333;-67
2022/05/24 02:41:56;;;;;;;20.77;13.83;;;;;;;6.93;78.47;99113.56;1716689;83;21032;-66
2022/05/24 02:44:23;;;;;;;25.43;14.38;;;;;;;6.99;78.62;99111.00;1716937;83;21466;-67
2022/05/24 02:46:49;;;;;;;21.77;14.38;;;;;;;7.05;78.71;99114.42;1717042;83;21088;-68
2022/05/24 02:49:17;;;;;;;23.87;14.15;;;;;;;7.17;78.84;99111.98;1707941;83;22048;-66
2022/05/24 02:51:44;;;;;;;24.23;15.93;;;;;;;7.25;78.70;99117.28;1709653;83;21164;-68
2022/05/24 02:54:12;;;;;;;27.07;14.73;;;;;;;7.33;78.57;99115.75;1704855;84;20948;-66
2022/05/24 02:56:38;;;;;;;25.23;14.15;;;;;;;7.37;78.63;99111.84;1718963;82;21062;-67
2022/05/24 02:59:06;;;;;;;25.27;14.25;;;;;;;7.44;78.72;99110.84;1738643;82;21492;-65
2022/05/24 03:01:32;;;;;;;22.77;14.40;;;;;;;7.51;78.53;99113.16;1707619;84;20969;-65
2022/05/24 03:03:59;;;;;;;20.92;14.15;;;;;;;7.54;78.40;99115.30;1738267;82;21099;-65
2022/05/24 03:09:33;;;;;;;20.23;13.25;;;;;;;7.57;78.50;99116.05;1708755;84;20972;-67
2022/05/24 03:14:29;;;;;;;25.82;14.00;;;;;;;7.31;78.18;99137.17;1730214;83;21001;-66
2022/05/24 03:16:56;;;;;;;22.13;14.15;;;;;;;7.20;79.44;99144.00;1730030;83;21084;-66
2022/05/24 03:19:23;;;;;;;27.27;14.47;;;;;;;7.23;79.88;99142.83;1728407;83;20878;-66
2022/05/24 03:21:50;;;;;;;23.98;14.35;;;;;;;7.34;80.12;99140.66;1730182;82;21524;-67
2022/05/24 03:24:17;;;;;;;28.55;14.18;;;;;;;7.45;80.17;99141.81;1729746;83;21009;-65
2022/05/24 03:26:43;;;;;;;26.30;14.73;;;;;;;7.54;80.21;99139.40;1729895;83;21080;-65
2022/05/24 03:29:10;;;;;;;24.50;15.48;;;;;;;7.62;80.07;99145.27;1728521;82;21947;-65
2022/05/24 03:31:36;;;;;;;26.85;15.63;;;;;;;7.72;80.24;99146.97;1729732;83;21056;-67
2022/05/24 03:34:05;;;;;;;26.87;16.85;;;;;;;7.82;80.20;99148.65;1726338;83;21164;-66
2022/05/24 03:36:33;;;;;;;27.00;17.07;;;;;;;7.92;79.89;99153.90;1734194;82;20967;-67
2022/05/24 03:39:00;;;;;;;30.88;17.48;;;;;;;7.98;79.76;99151.85;1718669;83;21005;-65
2022/05/24 03:41:26;;;;;;;39.55;20.02;;;;;;;8.04;79.68;99147.30;1707582;84;21160;-66
2022/05/24 03:43:53;;;;;;;39.83;18.77;;;;;;;8.12;79.56;99144.94;1734873;82;20988;-67
2022/05/24 03:46:23;;;;;;;30.60;18.32;;;;;;;8.20;79.56;99146.92;1738575;82;20944;-66
2022/05/24 03:48:49;;;;;;;40.03;18.87;;;;;;;8.28;79.47;99146.72;1738470;82;21007;-65
2022/05/24 03:51:17;;;;;;;42.67;19.37;;;;;;;8.36;79.21;99145.16;1734836;82;21072;-64
2022/05/24 03:53:44;;;;;;;32.03;17.92;;;;;;;8.43;77.74;99146.87;1738323;82;21155;-66
2022/05/24 03:56:12;;;;;;;35.28;18.30;;;;;;;8.49;77.69;99146.19;1734713;82;20923;-66
2022/05/24 03:58:41;;;;;;;36.53;18.42;;;;;;;8.59;77.88;99149.25;1704845;84;21556;-67
2022/05/24 04:01:08;;;;;;;38.40;18.90;;;;;;;8.69;78.07;99150.35;1691871;84;20997;-65
2022/05/24 04:03:35;;;;;;;36.13;18.15;;;;;;;8.78;77.88;99144.08;1704259;83;20936;-68
2022/05/24 04:06:02;;;;;;;34.20;18.00;;;;;;;8.83;77.39;99146.69;1704967;84;21905;-66
2022/05/24 04:08:29;;;;;;;38.78;19.12;;;;;;;8.91;77.09;99150.58;1704834;84;20941;-66
2022/05/24 04:11:06;;;;;;;36.50;18.30;;;;;;;9.05;77.09;99162.84;1704829;83;21095;-65
2022/05/24 04:13:34;;;;;;;40.12;20.43;;;;;;;9.13;75.81;99164.80;1705113;83;21056;-65
2022/05/24 04:16:00;;;;;;;43.20;19.65;;;;;;;9.24;74.78;99163.40;1705187;84;20968;-66
2022/05/24 04:18:26;;;;;;;40.15;19.17;;;;;;;9.36;74.56;99167.45;1704582;84;21563;-65
2022/05/24 04:20:56;;;;;;;43.48;18.70;;;;;;;9.48;74.05;99166.24;1704705;84;20928;-67
2022/05/24 04:23:23;;;;;;;40.23;17.87;;;;;;;9.62;74.06;99167.48;1705856;83;20985;-66
2022/05/24 04:25:51;;;;;;;43.00;19.75;;;;;;;9.74;73.46;99170.19;1708604;83;21032;-67
2022/05/24 04:28:20;;;;;;;34.65;18.32;;;;;;;9.87;73.31;99168.39;1703315;84;21071;-68
2022/05/24 04:30:47;;;;;;;35.15;17.23;;;;;;;9.98;73.25;99171.61;1703358;82;21281;-66
2022/05/24 04:33:15;;;;;;;35.13;17.42;;;;;;;10.07;72.26;99168.30;1703680;83;21496;-65
2022/05/24 04:35:46;;;;;;;28.62;16.97;;;;;;;10.20;72.24;99174.75;1704978;82;21411;-67
2022/05/24 04:38:14;;;;;;;37.25;15.98;;;;;;;10.33;71.25;99177.10;1704907;84;21043;-66
2022/05/24 04:43:26;;;;;;;31.75;16.07;;;;;;;10.61;70.03;99170.39;1716689;82;21964;-65
2022/05/24 04:45:55;;;;;;;31.27;16.45;;;;;;;10.74;69.75;99176.03;1702325;84;20944;-65
2022/05/24 04:48:23;;;;;;;33.20;16.65;;;;;;;10.87;69.78;99176.95;1693147;84;20978;-66
2022/05/24 04:50:53;;;;;;;39.05;16.93;;;;;;;10.97;69.17;99177.17;1696833;84;21084;-67
2022/05/24 04:53:20;;;;;;;35.43;16.55;;;;;;;11.05;68.90;99179.08;1702846;83;21051;-65
2022/05/24 04:55:49;;;;;;;30.17;14.03;;;;;;;11.16;68.94;99178.13;1702276;84;21278;-67
2022/05/24 04:58:17;;;;;;;26.65;13.68;;;;;;;11.30;66.25;99179.27;1701865;84;21032;-65
2022/05/24 05:00:44;;;;;;;32.38;13.75;;;;;;;11.44;65.57;99179.03;1712210;83;21117;-65
2022/05/24 05:03:13;;;;;;;21.90;13.03;;;;;;;11.60;65.22;99179.83;1711084;83;20983;-66
2022/05/24 05:05:41;;;;;;;19.90;10.35;;;;;;;11.72;64.36;99180.47;1709927;83;21503;-66
2022/05/24 05:08:09;;;;;;;22.10;9.83;;;;;;;11.87;61.51;99189.53;1711985;83;21551;-66
2022/05/24 05:10:37;;;;;;;19.62;8.60;;;;;;;12.00;60.96;99186.81;1709204;83;21089;-63
2022/05/24 05:13:04;;;;;;;19.95;7.67;;;;;;;12.11;60.44;99181.73;1680209;84;21578;-63
2022/05/24 05:15:34;;;;;;;14.10;7.67;;;;;;;12.22;58.63;99187.63;1710690;83;21066;-64
2022/05/24 05:18:10;;;;;;;11.83;7.70;;;;;;;12.34;58.49;99191.82;1711328;83;21173;-64
2022/05/24 05:20:41;;;;;;;11.85;6.25;;;;;;;12.44;58.69;99188.38;1681999;85;21160;-66
2022/05/24 05:23:10;;;;;;;11.65;6.25;;;;;;;12.53;57.25;99196.84;1705013;83;21107;-66
2022/05/24 05:25:37;;;;;;;9.00;5.50;;;;;;;12.63;54.23;99194.77;1711129;83;21031;-65
2022/05/24 05:28:06;;;;;;;9.38;5.15;;;;;;;12.73;52.86;99199.87;1707483;82;21059;-63
2022/05/24 05:33:17;;;;;;;7.62;4.78;;;;;;;12.92;51.99;99194.94;1711739;82;21807;-62
2022/05/24 05:35:47;;;;;;;8.73;4.55;;;;;;;13.02;51.29;99198.06;1709294;82;21023;-64
2022/05/24 05:38:14;;;;;;;8.65;5.42;;;;;;;13.13;51.21;99199.00;1710513;82;21053;-60
2022/05/24 05:40:41;;;;;;;9.05;4.15;;;;;;;13.23;50.15;99201.30;1711814;83;21000;-61
2022/05/24 05:43:09;;;;;;;10.72;4.10;;;;;;;13.34;49.10;99194.71;1711302;83;21528;-62
2022/05/24 05:45:37;;;;;;;6.78;4.17;;;;;;;13.48;47.48;99194.36;1711454;83;20987;-63
2022/05/24 05:48:06;;;;;;;8.35;4.53;;;;;;;13.59;47.80;99193.92;1711643;83;21039;-62
2022/05/24 05:50:34;;;;;;;5.47;3.40;;;;;;;13.66;47.99;99191.95;1710931;83;21440;-62
2022/05/24 05:53:04;;;;;;;14.70;4.55;;;;;;;13.69;46.25;99192.06;1709550;83;20980;-63
2022/05/24 05:55:29;;;;;;;14.87;4.25;;;;;;;13.72;45.08;99189.16;1711308;83;21015;-65
2022/05/24 05:57:56;;;;;;;7.37;4.03;;;;;;;13.78;45.51;99198.03;1704147;82;21186;-63
2022/05/24 06:00:22;;;;;;;10.68;4.45;;;;;;;13.84;45.56;99197.44;1699571;83;20951;-63
2022/05/24 06:02:52;;;;;;;25.65;5.55;;;;;;;13.89;45.13;99199.75;1696935;84;21023;-62
2022/05/24 06:05:19;;;;;;;8.90;4.78;;;;;;;13.94;45.12;99198.91;1689207;84;21106;-64
2022/05/24 06:07:45;;;;;;;12.18;4.10;;;;;;;14.02;44.28;99199.94;1698668;84;21030;-64
2022/05/24 06:10:13;;;;;;;12.33;4.15;;;;;;;14.12;42.58;99199.41;1699594;83;21516;-63
2022/05/24 06:12:41;;;;;;;7.65;3.95;;;;;;;14.20;42.47;99199.63;1699557;84;21520;-64
2022/05/24 06:15:09;;;;;;;13.55;4.78;;;;;;;14.25;43.20;99202.14;1699725;84;21763;-62
2022/05/24 06:17:44;;;;;;;7.05;4.00;;;;;;;14.29;42.15;99208.61;1699127;84;21581;-66
2022/05/24 06:20:13;;;;;;;9.98;2.65;;;;;;;14.31;40.02;99206.27;1701014;82;20976;-65
2022/05/24 06:22:41;;;;;;;4.72;2.80;;;;;;;14.35;39.74;99210.53;1702530;84;21753;-67
2022/05/24 06:25:09;;;;;;;7.40;3.10;;;;;;;14.39;40.21;99216.17;1701435;83;21043;-63
2022/05/24 06:27:36;;;;;;;7.10;2.65;;;;;;;14.42;40.68;99206.58;1703549;82;21083;-65
2022/05/24 06:30:04;;;;;;;5.40;2.90;;;;;;;14.46;40.32;99203.33;1711563;82;20983;-61
2022/05/24 06:32:30;;;;;;;5.85;2.85;;;;;;;14.52;40.32;99209.41;1723872;82;21054;-66
2022/05/24 06:34:58;;;;;;;3.37;2.22;;;;;;;14.56;40.42;99208.13;1732097;82;21133;-65
2022/05/24 06:37:25;;;;;;;4.85;2.60;;;;;;;14.58;38.98;99203.03;1704659;82;21000;-61
2022/05/24 06:39:52;;;;;;;5.35;2.00;;;;;;;14.62;38.00;99212.23;1709194;83;21050;-65
2022/05/24 06:42:25;;;;;;;5.67;2.12;;;;;;;14.71;37.26;99210.69;1710779;83;21000;-64
2022/05/24 06:44:56;;;;;;;3.08;2.25;;;;;;;14.80;36.91;99207.21;1706571;82;21078;-65
2022/05/24 06:47:22;;;;;;;4.20;1.92;;;;;;;14.87;37.89;99211.32;1708473;82;21141;-66
2022/05/24 06:49:49;;;;;;;3.08;1.90;;;;;;;14.91;35.96;99208.07;1705335;83;21072;-67
2022/05/24 06:52:17;;;;;;;3.85;1.62;;;;;;;14.95;35.59;99208.95;1705380;84;21015;-64
2022/05/24 06:54:43;;;;;;;4.50;2.12;;;;;;;14.97;35.27;99214.95;1706759;82;21457;-65
2022/05/24 06:57:10;;;;;;;2.42;1.90;;;;;;;14.99;35.12;99211.25;1705962;82;21011;-67
2022/05/24 07:02:25;;;;;;;5.85;2.20;;;;;;;15.12;34.77;99212.52;1722123;83;21047;-66
2022/05/24 07:04:59;;;;;;;5.47;3.02;;;;;;;15.15;35.77;99218.77;1704298;84;21043;-67
2022/05/24 07:07:27;;;;;;;4.60;2.33;;;;;;;15.21;35.83;99217.33;1722309;83;21056;-66
2022/05/24 07:09:55;;;;;;;8.15;2.35;;;;;;;15.28;36.38;99221.66;1704431;84;20948;-66
2022/05/24 07:12:22;;;;;;;4.42;2.40;;;;;;;15.37;36.93;99220.67;1722260;83;21160;-67
2022/05/24 07:14:49;;;;;;;5.37;2.17;;;;;;;15.45;36.73;99222.45;1704224;84;21226;-65
2022/05/24 07:17:17;;;;;;;3.72;2.58;;;;;;;15.53;36.53;99221.44;1720682;83;21561;-66
2022/05/24 07:19:45;;;;;;;4.70;2.15;;;;;;;15.58;36.45;99230.89;1702955;84;21437;-66
2022/05/24 07:22:11;;;;;;;6.37;1.77;;;;;;;15.60;35.13;99219.98;1712803;82;21116;-62
2022/05/24 07:24:39;;;;;;;2.75;1.87;;;;;;;15.62;35.44;99231.55;1698905;83;21964;-66
2022/05/24 07:27:11;;;;;;;8.18;2.75;;;;;;;15.66;34.97;99226.89;1727496;81;21016;-67
2022/05/24 07:29:40;;;;;;;6.33;2.65;;;;;;;15.64;34.18;99233.38;1708471;82;21548;-68
2022/05/24 07:32:07;;;;;;;5.10;2.58;;;;;;;15.63;35.21;99237.31;1699635;82;21559;-62
2022/05/24 07:34:35;;;;;;;8.00;2.62;;;;;;;15.68;35.72;99234.25;1674928;85;21000;-64
2022/05/24 07:37:03;;;;;;;11.63;2.20;;;;;;;15.75;35.93;99241.37;1674868;85;21195;-65
2022/05/24 07:39:29;;;;;;;4.35;1.85;;;;;;;15.85;35.81;99237.81;1675015;85;21019;-66
2022/05/24 07:47:19;;;;;;;7.67;1.95;;;;;;;16.02;34.31;99236.02;1644977;84;21008;-66
2022/05/24 07:49:46;;;;;;;5.00;2.05;;;;;;;16.00;33.13;99231.41;1707280;84;21567;-66
2022/05/24 07:52:14;;;;;;;4.20;2.27;;;;;;;16.03;34.34;99232.09;1701695;82;20998;-65
2022/05/24 07:54:41;;;;;;;3.77;2.12;;;;;;;16.10;34.07;99232.83;1704393;84;21000;-66
2022/05/24 07:57:08;;;;;;;5.60;2.02;;;;;;;16.12;33.84;99223.52;1697568;82;21567;-65
2022/05/24 07:59:37;;;;;;;5.00;1.90;;;;;;;16.15;34.04;99235.90;1690288;84;21429;-66
2022/05/24 08:02:06;;;;;;;5.72;3.10;;;;;;;16.20;34.61;99227.27;1692014;84;21165;-65
2022/05/24 08:04:34;;;;;;;8.10;2.02;;;;;;;16.32;35.07;99229.67;1688834;83;21055;-66
2022/05/24 08:07:01;;;;;;;5.42;1.90;;;;;;;16.42;34.70;99234.64;1687938;84;21041;-66
2022/05/24 08:09:29;;;;;;;2.80;1.95;;;;;;;16.49;34.70;99233.98;1690361;84;21078;-65
2022/05/24 08:11:57;;;;;;;5.97;2.33;;;;;;;16.57;34.69;99233.52;1691399;84;21113;-66
2022/05/24 08:14:24;;;;;;;2.72;2.17;;;;;;;16.67;35.30;99228.75;1689501;83;22000;-67
2022/05/24 08:16:51;;;;;;;2.10;1.85;;;;;;;16.78;35.09;99230.34;1692743;84;21056;-66
2022/05/24 08:19:17;;;;;;;4.60;2.37;;;;;;;16.86;35.18;99228.48;1691282;83;21005;-66
2022/05/24 08:21:44;;;;;;;6.55;1.82;;;;;;;16.87;32.17;99230.90;1692991;84;21005;-67
2022/05/24 08:24:12;;;;;;;5.67;1.92;;;;;;;16.81;32.53;99231.57;1693135;84;20997;-66
2022/05/24 08:26:39;;;;;;;2.90;1.67;;;;;;;16.76;31.77;99246.02;1693045;84;21139;-64
2022/05/24 08:29:05;;;;;;;4.15;1.80;;;;;;;16.78;33.38;99235.91;1689928;84;21063;-65
2022/05/24 08:31:32;;;;;;;5.78;2.25;;;;;;;16.87;33.58;99239.24;1688476;84;21128;-66
2022/05/24 08:34:00;;;;;;;3.42;2.10;;;;;;;16.96;33.51;99240.39;1690116;84;21065;-63
2022/05/24 08:36:28;;;;;;;4.40;1.72;;;;;;;17.09;33.33;99236.05;1685927;84;21086;-64
2022/05/24 08:38:55;;;;;;;5.85;1.80;;;;;;;17.19;33.54;99237.42;1689371;84;21748;-66
2022/05/24 08:41:29;;;;;;;2.72;1.85;;;;;;;17.31;33.91;99236.42;1689966;84;21097;-66
2022/05/24 08:48:22;;;;;;;2.70;1.47;;;;;;;17.38;32.11;99235.16;1689095;84;21085;-65
2022/05/24 08:49:22;;;;;;;6.25;1.57;;;;;;;17.41;32.35;99230.23;1688299;84;21031;-66
2022/05/24 08:51:59;;;;;;;7.10;1.72;;;;;;;17.39;32.39;99235.36;1690509;84;21484;-64
2022/05/24 08:54:42;;;;;;;7.78;1.47;;;;;;;17.30;32.31;99241.19;1689076;84;21025;-63
2022/05/24 08:57:17;;;;;;;2.47;1.75;;;;;;;17.31;32.58;99233.64;1701878;84;21114;-64
2022/05/24 08:59:53;;;;;;;3.65;1.80;;;;;;;17.40;32.71;99242.52;1716488;82;21017;-65
2022/05/24 09:02:20;;;;;;;4.40;1.85;;;;;;;17.37;31.04;99234.92;1737384;81;21491;-64
2022/05/24 09:04:46;;;;;;;5.67;1.75;;;;;;;17.24;30.14;99235.14;1743374;81;21238;-66
2022/05/24 09:07:25;;;;;;;2.00;1.80;;;;;;;17.20;33.19;99232.88;1742213;81;21083;-66
2022/05/24 09:10:06;;;;;;;3.17;2.33;;;;;;;17.28;32.96;99218.50;1737736;81;21063;-63
2022/05/24 09:13:16;;;;;;;14.70;2.15;;;;;;;17.41;33.85;99221.88;1740693;81;20952;-64
2022/05/24 09:16:15;;;;;;;6.17;1.75;;;;;;;17.56;33.01;99225.67;1736753;81;21509;-64
2022/05/24 09:19:00;;;;;;;4.72;3.08;;;;;;;17.70;33.17;99229.84;1731679;82;21152;-63
2022/05/24 09:21:29;;;;;;;2.85;1.65;;;;;;;17.73;31.69;99229.91;1736115;82;20996;-65
2022/05/24 09:24:09;;;;;;;2.08;1.67;;;;;;;17.74;32.86;99225.14;1707500;82;21008;-65
2022/05/24 09:27:07;;;;;;;4.65;1.80;;;;;;;17.71;30.56;99218.33;1727785;82;21627;-63
2022/05/24 09:29:37;;;;;;;5.72;1.70;;;;;;;17.62;31.44;99229.73;1737650;82;21028;-63
2022/05/24 09:32:08;;;;;;;2.52;1.52;;;;;;;17.62;31.67;99226.17;1733364;82;21718;-65
2022/05/24 09:34:37;;;;;;;3.85;1.50;;;;;;;17.68;32.79;99219.09;1727218;82;20921;-65
2022/05/24 09:37:24;;;;;;;5.50;1.45;;;;;;;17.79;32.14;99218.44;1738150;82;21028;-66
2022/05/24 09:40:02;;;;;;;14.25;2.40;;;;;;;17.87;32.66;99222.92;1734822;81;21460;-64
2022/05/24 09:42:33;;;;;;;4.00;1.50;;;;;;;18.02;33.68;99219.73;1735209;82;20984;-64
2022/05/24 09:45:05;;;;;;;7.47;1.50;;;;;;;18.22;34.33;99216.84;1735335;82;21166;-66
2022/05/24 09:47:36;;;;;;;4.35;1.80;;;;;;;18.39;33.95;99219.59;1734973;82;21043;-66
2022/05/24 09:50:31;;;;;;;12.43;1.52;;;;;;;18.56;32.73;99227.95;1726909;81;21497;-66
2022/05/24 09:53:09;;;;;;;3.27;1.60;;;;;;;18.55;31.09;99229.73;1737714;82;21020;-66
2022/05/24 09:55:51;;;;;;;5.28;1.60;;;;;;;18.42;30.38;99230.59;1737883;81;21102;-66
2022/05/24 09:58:29;;;;;;;1.72;1.37;;;;;;;18.37;31.84;99226.95;1732014;81;21254;-66
2022/05/24 10:01:07;;;;;;;2.50;1.50;;;;;;;18.46;33.33;99226.66;1705299;84;21035;-65
2022/05/24 10:03:41;;;;;;;3.15;1.60;;;;;;;18.54;31.54;99225.34;1703716;82;21027;-66
2022/05/24 10:06:24;;;;;;;3.17;1.65;;;;;;;18.59;32.20;99222.22;1713706;82;21030;-67
2022/05/24 10:08:56;;;;;;;6.50;1.60;;;;;;;18.68;31.93;99216.34;1727964;83;21495;-67
2022/05/24 10:11:42;;;;;;;5.60;2.00;;;;;;;18.77;32.29;99222.39;1727790;83;21057;-65
2022/05/24 10:14:44;;;;;;;9.00;2.00;;;;;;;18.85;31.86;99220.48;1727661;83;21514;-65
2022/05/24 10:17:33;;;;;;;2.05;1.42;;;;;;;18.92;32.05;99221.15;1726015;83;21079;-65
2022/05/24 10:20:40;;;;;;;4.62;1.52;;;;;;;19.02;31.22;99216.23;1708035;81;22094;-65
2022/05/24 10:23:28;;;;;;;14.90;3.20;;;;;;;19.09;32.42;99215.48;1705588;84;21026;-64
2022/05/24 10:26:15;;;;;;;2.42;1.67;;;;;;;19.08;32.51;99219.48;1704813;84;21718;-67
2022/05/24 10:28:53;;;;;;;3.22;1.65;;;;;;;19.01;32.19;99213.24;1705080;84;20968;-65
2022/05/24 10:31:56;;;;;;;6.87;2.10;;;;;;;19.07;32.05;99208.11;1677744;84;21038;-66
2022/05/24 10:41:14;;;;;;;2.95;1.32;;;;;;;19.19;31.83;99212.62;1728789;82;21237;-66
2022/05/24 10:44:05;;;;;;;2.90;1.57;;;;;;;19.23;31.33;99207.08;1713488;82;21046;-65
2022/05/24 10:46:46;;;;;;;2.40;1.32;;;;;;;19.32;31.23;99211.13;1709358;82;20979;-66
2022/05/24 10:49:39;;;;;;;4.15;1.52;;;;;;;19.16;30.04;99210.00;1704825;84;21098;-66
2022/05/24 10:52:23;;;;;;;3.67;1.60;;;;;;;19.08;31.91;99209.70;1696499;84;20955;-65
2022/05/24 10:55:08;;;;;;;3.67;1.85;;;;;;;19.08;31.91;99209.70;1676480;84;21938;-65
2022/05/24 10:58:09;;;;;;;3.15;1.17;;;;;;;19.24;32.20;99205.88;1705286;84;20951;-65
2022/05/24 11:00:46;;;;;;;2.75;1.32;;;;;;;19.42;32.67;99194.24;1693042;83;21319;-66
2022/05/24 11:03:20;;;;;;;3.10;1.60;;;;;;;19.62;30.95;99202.33;1721733;83;21092;-65
2022/05/24 11:05:58;;;;;;;2.52;1.57;;;;;;;19.65;31.13;99195.96;1722161;83;20957;-65
2022/05/24 11:08:48;;;;;;;2.77;1.90;;;;;;;19.62;30.57;99207.14;1721623;82;21060;-66
2022/05/24 11:11:47;;;;;;;5.22;1.60;;;;;;;19.40;30.99;99193.83;1712507;83;20981;-65
2022/05/24 11:14:29;;;;;;;3.30;1.27;;;;;;;19.37;31.81;99194.61;1721013;83;20882;-65
2022/05/24 11:16:56;;;;;;;3.52;1.30;;;;;;;19.48;31.16;99199.47;1720662;83;21438;-66
2022/05/24 11:19:28;;;;;;;6.12;1.62;;;;;;;19.57;31.77;99207.70;1720962;83;20954;-66
2022/05/24 11:22:34;;;;;;;4.87;1.80;;;;;;;19.63;30.26;99204.55;1721266;83;21141;-64
2022/05/24 11:25:22;;;;;;;4.67;1.40;;;;;;;19.57;30.55;99205.50;1722163;83;20985;-65
2022/05/24 11:28:05;;;;;;;6.78;1.37;;;;;;;19.64;30.75;99199.96;1722505;83;21092;-67
2022/05/24 11:30:41;;;;;;;3.25;1.75;;;;;;;19.78;31.36;99192.26;1722897;83;20985;-67
2022/05/24 11:33:11;;;;;;;1.42;1.07;;;;;;;19.93;31.83;99193.13;1722474;81;21013;-66
2022/05/24 11:35:44;;;;;;;2.75;1.37;;;;;;;20.07;31.74;99198.61;1722230;83;48754;-65
2022/05/24 11:38:24;;;;;;;3.75;1.25;;;;;;;20.21;30.62;99199.85;1692388;83;21085;-66
2022/05/24 11:41:12;;;;;;;2.17;1.25;;;;;;;20.25;30.65;99202.08;1693333;83;21478;-66
2022/05/24 11:43:45;;;;;;;3.98;1.85;;;;;;;20.18;29.73;99198.04;1721903;83;21572;-66
2022/05/24 11:46:39;;;;;;;2.85;1.35;;;;;;;19.94;28.71;99197.52;1722446;83;21010;-66
2022/05/24 11:49:24;;;;;;;2.55;1.50;;;;;;;19.93;30.37;99196.51;1721417;82;21728;-65
2022/05/24 11:51:54;;;;;;;6.12;2.00;;;;;;;20.11;31.95;99190.23;1718991;83;21018;-67
2022/05/24 11:54:29;;;;;;;5.87;1.87;;;;;;;20.30;30.55;99193.31;1720090;83;21032;-67
2022/05/24 11:57:07;;;;;;;3.35;1.55;;;;;;;20.37;30.77;99198.13;1721204;83;21048;-65
2022/05/24 11:59:46;;;;;;;5.70;1.47;;;;;;;20.43;30.20;99193.73;1720172;83;21057;-66
2022/05/24 12:07:54;;;;;;;5.60;2.22;;;;;;;20.46;30.23;99186.53;1718176;83;22153;-67
2022/05/24 12:08:01;;;;;;;5.95;1.47;;;;;;;20.45;30.57;99192.74;1720672;83;21021;-62
2022/05/24 12:10:38;;;;;;;2.60;1.30;;;;;;;20.51;30.29;99193.14;1728072;82;21037;-65
2022/05/24 12:13:34;;;;;;;2.62;1.37;;;;;;;20.60;31.38;99185.17;1726951;82;21054;-66
2022/05/24 12:16:05;;;;;;;6.80;1.55;;;;;;;20.74;31.17;99183.00;1722045;82;21144;-64
2022/05/24 12:18:45;;;;;;;3.85;2.02;;;;;;;20.77;30.51;99187.80;1717997;82;21089;-65
2022/05/24 12:21:18;;;;;;;6.50;1.85;;;;;;;20.71;29.54;99192.17;1718573;82;21076;-63
2022/05/24 12:23:44;;;;;;;4.58;1.30;;;;;;;20.64;29.39;99190.16;1712167;83;21077;-65
2022/05/24 12:26:12;;;;;;;2.92;1.70;;;;;;;20.67;29.00;99190.80;1724651;82;21544;-64
2022/05/24 12:28:48;;;;;;;3.95;1.40;;;;;;;20.73;29.99;99186.17;1728231;82;21937;-63